sensor_id;sensor_type;location;lat;lon;timestamp;P1;durP1;ratioP1;P2;durP2;ratioP2
19446;SDS011;9862;49.462;11.054;2023-12-07T00:00:00;18.73;;;11.13;;
19446;SDS011;9862;49.462;11.054;2023-12-07T00:02:27;23.88;;;11.45;;
19446;SDS011;9862;49.462;11.054;2023-12-07T00:04:57;21.85;;;10.90;;
19446;SDS011;9862;49.462;11.054;2023-12-07T00:07:24;23.20;;;11.50;;
19446;SDS011;9862;49.462;11.054;2023-12-07T00:09:54;19.05;;;10.98;;
19446;SDS011;9862;49.462;11.054;2023-12-07T00:12:22;21.65;;;11.57;;
19446;SDS011;9862;49.462;11.054;2023-12-07T00:14:50;18.85;;;11.23;;
19446;SDS011;9862;49.462;11.054;2023-12-07T00:17:17;18.90;;;11.05;;
19446;SDS011;9862;49.462;11.054;2023-12-07T00:19:44;19.55;;;10.63;;
19446;SDS011;9862;49.462;11.054;2023-12-07T00:22:13;18.77;;;10.65;;
19446;SDS011;9862;49.462;11.054;2023-12-07T00:24:40;22.02;;;11.68;;
19446;SDS011;9862;49.462;11.054;2023-12-07T00:27:06;19.40;;;10.77;;
19446;SDS011;9862;49.462;11.054;2023-12-07T00:29:36;21.52;;;11.50;;
19446;SDS011;9862;49.462;11.054;2023-12-07T00:32:03;19.08;;;10.75;;
19446;SDS011;9862;49.462;11.054;2023-12-07T00:34:30;18.98;;;11.32;;
19446;SDS011;9862;49.462;11.054;2023-12-07T00:37:00;23.08;;;11.80;;
19446;SDS011;9862;49.462;11.054;2023-12-07T00:39:29;20.92;;;11.02;;
19446;SDS011;9862;49.462;11.054;2023-12-07T00:41:56;20.45;;;10.10;;
19446;SDS011;9862;49.462;11.054;2023-12-07T00:44:22;19.23;;;11.00;;
19446;SDS011;9862;49.462;11.054;2023-12-07T00:46:52;19.95;;;11.45;;
19446;SDS011;9862;49.462;11.054;2023-12-07T00:49:19;18.70;;;10.50;;
19446;SDS011;9862;49.462;11.054;2023-12-07T00:51:47;19.83;;;11.13;;
19446;SDS011;9862;49.462;11.054;2023-12-07T00:54:14;22.23;;;10.90;;
19446;SDS011;9862;49.462;11.054;2023-12-07T00:56:45;20.70;;;11.23;;
19446;SDS011;9862;49.462;11.054;2023-12-07T00:59:12;19.38;;;10.65;;
19446;SDS011;9862;49.462;11.054;2023-12-07T01:01:41;19.58;;;10.57;;
19446;SDS011;9862;49.462;11.054;2023-12-07T01:04:08;22.20;;;10.85;;
19446;SDS011;9862;49.462;11.054;2023-12-07T01:06:38;19.08;;;10.52;;
19446;SDS011;9862;49.462;11.054;2023-12-07T01:09:10;19.25;;;10.88;;
19446;SDS011;9862;49.462;11.054;2023-12-07T01:11:38;16.02;;;9.85;;
19446;SDS011;9862;49.462;11.054;2023-12-07T01:14:09;17.40;;;10.50;;
19446;SDS011;9862;49.462;11.054;2023-12-07T01:16:38;18.98;;;11.18;;
19446;SDS011;9862;49.462;11.054;2023-12-07T01:19:05;20.08;;;10.55;;
19446;SDS011;9862;49.462;11.054;2023-12-07T01:21:32;18.45;;;11.63;;
19446;SDS011;9862;49.462;11.054;2023-12-07T01:24:00;20.60;;;12.07;;
19446;SDS011;9862;49.462;11.054;2023-12-07T01:26:27;16.85;;;9.88;;
19446;SDS011;9862;49.462;11.054;2023-12-07T01:28:54;17.42;;;9.40;;
19446;SDS011;9862;49.462;11.054;2023-12-07T01:31:24;16.40;;;9.93;;
19446;SDS011;9862;49.462;11.054;2023-12-07T01:33:51;17.52;;;10.60;;
19446;SDS011;9862;49.462;11.054;2023-12-07T01:36:19;15.82;;;9.30;;
19446;SDS011;9862;49.462;11.054;2023-12-07T01:38:45;16.75;;;8.82;;
19446;SDS011;9862;49.462;11.054;2023-12-07T01:41:15;17.65;;;9.82;;
19446;SDS011;9862;49.462;11.054;2023-12-07T01:43:44;17.85;;;9.60;;
19446;SDS011;9862;49.462;11.054;2023-12-07T01:46:11;14.27;;;8.38;;
19446;SDS011;9862;49.462;11.054;2023-12-07T01:48:41;17.25;;;9.70;;
19446;SDS011;9862;49.462;11.054;2023-12-07T01:51:09;17.98;;;10.70;;
19446;SDS011;9862;49.462;11.054;2023-12-07T01:53:37;16.55;;;9.68;;
19446;SDS011;9862;49.462;11.054;2023-12-07T01:56:06;20.92;;;10.48;;
19446;SDS011;9862;49.462;11.054;2023-12-07T01:58:38;19.42;;;10.75;;
19446;SDS011;9862;49.462;11.054;2023-12-07T02:01:05;18.13;;;10.40;;
19446;SDS011;9862;49.462;11.054;2023-12-07T02:03:34;19.42;;;10.00;;
19446;SDS011;9862;49.462;11.054;2023-12-07T02:06:02;15.70;;;10.20;;
19446;SDS011;9862;49.462;11.054;2023-12-07T02:08:30;19.00;;;9.32;;
19446;SDS011;9862;49.462;11.054;2023-12-07T02:10:58;17.15;;;9.93;;
19446;SDS011;9862;49.462;11.054;2023-12-07T02:13:25;24.38;;;10.18;;
19446;SDS011;9862;49.462;11.054;2023-12-07T02:15:52;17.27;;;9.63;;
19446;SDS011;9862;49.462;11.054;2023-12-07T02:18:25;16.20;;;9.57;;
19446;SDS011;9862;49.462;11.054;2023-12-07T02:21:02;17.30;;;9.10;;
19446;SDS011;9862;49.462;11.054;2023-12-07T02:23:35;18.65;;;9.68;;
19446;SDS011;9862;49.462;11.054;2023-12-07T02:26:06;16.23;;;8.80;;
19446;SDS011;9862;49.462;11.054;2023-12-07T02:28:37;17.30;;;9.77;;
19446;SDS011;9862;49.462;11.054;2023-12-07T02:31:04;16.17;;;9.55;;
19446;SDS011;9862;49.462;11.054;2023-12-07T02:33:31;16.15;;;9.10;;
19446;SDS011;9862;49.462;11.054;2023-12-07T02:35:58;19.40;;;9.73;;
19446;SDS011;9862;49.462;11.054;2023-12-07T02:38:26;16.65;;;9.15;;
19446;SDS011;9862;49.462;11.054;2023-12-07T02:40:57;18.38;;;8.95;;
19446;SDS011;9862;49.462;11.054;2023-12-07T02:43:32;15.68;;;9.30;;
19446;SDS011;9862;49.462;11.054;2023-12-07T02:46:06;16.90;;;9.27;;
19446;SDS011;9862;49.462;11.054;2023-12-07T02:48:37;15.63;;;9.43;;
19446;SDS011;9862;49.462;11.054;2023-12-07T02:51:08;18.17;;;8.93;;
19446;SDS011;9862;49.462;11.054;2023-12-07T02:53:34;18.88;;;9.23;;
19446;SDS011;9862;49.462;11.054;2023-12-07T02:56:01;17.55;;;10.38;;
19446;SDS011;9862;49.462;11.054;2023-12-07T02:58:29;15.77;;;9.15;;
19446;SDS011;9862;49.462;11.054;2023-12-07T03:00:56;15.65;;;9.18;;
19446;SDS011;9862;49.462;11.054;2023-12-07T03:03:25;18.83;;;9.00;;
19446;SDS011;9862;49.462;11.054;2023-12-07T03:05:52;17.00;;;9.23;;
19446;SDS011;9862;49.462;11.054;2023-12-07T03:08:19;16.65;;;9.15;;
19446;SDS011;9862;49.462;11.054;2023-12-07T03:10:48;20.17;;;10.10;;
19446;SDS011;9862;49.462;11.054;2023-12-07T03:13:15;17.75;;;9.90;;
19446;SDS011;9862;49.462;11.054;2023-12-07T03:15:43;19.88;;;9.63;;
19446;SDS011;9862;49.462;11.054;2023-12-07T03:18:11;21.45;;;9.27;;
19446;SDS011;9862;49.462;11.054;2023-12-07T03:20:42;20.88;;;9.73;;
19446;SDS011;9862;49.462;11.054;2023-12-07T03:23:12;19.88;;;9.60;;
19446;SDS011;9862;49.462;11.054;2023-12-07T03:25:41;15.00;;;8.93;;
19446;SDS011;9862;49.462;11.054;2023-12-07T03:28:09;16.42;;;9.32;;
19446;SDS011;9862;49.462;11.054;2023-12-07T03:30:37;20.00;;;9.80;;
19446;SDS011;9862;49.462;11.054;2023-12-07T03:33:05;17.88;;;9.93;;
19446;SDS011;9862;49.462;11.054;2023-12-07T03:35:33;17.00;;;9.77;;
19446;SDS011;9862;49.462;11.054;2023-12-07T03:38:01;16.67;;;9.25;;
19446;SDS011;9862;49.462;11.054;2023-12-07T03:40:29;19.40;;;9.63;;
19446;SDS011;9862;49.462;11.054;2023-12-07T03:42:57;14.95;;;9.63;;
19446;SDS011;9862;49.462;11.054;2023-12-07T03:45:23;18.30;;;10.40;;
19446;SDS011;9862;49.462;11.054;2023-12-07T03:47:50;21.23;;;11.27;;
19446;SDS011;9862;49.462;11.054;2023-12-07T03:50:17;19.20;;;10.38;;
19446;SDS011;9862;49.462;11.054;2023-12-07T03:52:44;16.65;;;10.50;;
19446;SDS011;9862;49.462;11.054;2023-12-07T03:55:12;17.98;;;9.35;;
19446;SDS011;9862;49.462;11.054;2023-12-07T03:57:39;18.80;;;9.48;;
19446;SDS011;9862;49.462;11.054;2023-12-07T04:00:06;15.55;;;9.70;;
19446;SDS011;9862;49.462;11.054;2023-12-07T04:02:36;19.63;;;10.80;;
19446;SDS011;9862;49.462;11.054;2023-12-07T04:05:03;17.92;;;10.43;;
19446;SDS011;9862;49.462;11.054;2023-12-07T04:07:30;16.98;;;9.82;;
19446;SDS011;9862;49.462;11.054;2023-12-07T04:09:57;18.45;;;10.50;;
19446;SDS011;9862;49.462;11.054;2023-12-07T04:12:25;18.95;;;9.50;;
19446;SDS011;9862;49.462;11.054;2023-12-07T04:14:52;17.33;;;9.95;;
19446;SDS011;9862;49.462;11.054;2023-12-07T04:17:20;19.77;;;10.43;;
19446;SDS011;9862;49.462;11.054;2023-12-07T04:19:46;19.42;;;11.77;;
19446;SDS011;9862;49.462;11.054;2023-12-07T04:22:14;18.42;;;11.43;;
19446;SDS011;9862;49.462;11.054;2023-12-07T04:24:41;21.60;;;11.40;;
19446;SDS011;9862;49.462;11.054;2023-12-07T04:27:08;17.27;;;10.52;;
19446;SDS011;9862;49.462;11.054;2023-12-07T04:29:36;18.35;;;11.82;;
19446;SDS011;9862;49.462;11.054;2023-12-07T04:32:03;21.83;;;11.18;;
19446;SDS011;9862;49.462;11.054;2023-12-07T04:34:31;20.15;;;11.23;;
19446;SDS011;9862;49.462;11.054;2023-12-07T04:36:58;23.83;;;12.20;;
19446;SDS011;9862;49.462;11.054;2023-12-07T04:39:25;21.38;;;12.10;;
19446;SDS011;9862;49.462;11.054;2023-12-07T04:41:52;22.73;;;11.50;;
19446;SDS011;9862;49.462;11.054;2023-12-07T04:44:18;22.30;;;12.32;;
19446;SDS011;9862;49.462;11.054;2023-12-07T04:46:47;22.20;;;11.98;;
19446;SDS011;9862;49.462;11.054;2023-12-07T04:49:14;22.13;;;12.38;;
19446;SDS011;9862;49.462;11.054;2023-12-07T04:51:41;25.17;;;11.88;;
19446;SDS011;9862;49.462;11.054;2023-12-07T04:54:11;23.25;;;12.35;;
19446;SDS011;9862;49.462;11.054;2023-12-07T04:56:39;22.27;;;12.18;;
19446;SDS011;9862;49.462;11.054;2023-12-07T04:59:07;25.48;;;12.85;;
19446;SDS011;9862;49.462;11.054;2023-12-07T05:01:36;22.27;;;12.35;;
19446;SDS011;9862;49.462;11.054;2023-12-07T05:04:06;22.17;;;12.60;;
19446;SDS011;9862;49.462;11.054;2023-12-07T05:06:34;22.05;;;13.05;;
19446;SDS011;9862;49.462;11.054;2023-12-07T05:09:01;22.88;;;12.45;;
19446;SDS011;9862;49.462;11.054;2023-12-07T05:11:28;21.98;;;12.18;;
19446;SDS011;9862;49.462;11.054;2023-12-07T05:13:56;24.52;;;12.88;;
19446;SDS011;9862;49.462;11.054;2023-12-07T05:16:23;19.40;;;11.40;;
19446;SDS011;9862;49.462;11.054;2023-12-07T05:18:51;21.00;;;12.45;;
19446;SDS011;9862;49.462;11.054;2023-12-07T05:21:20;26.50;;;13.25;;
19446;SDS011;9862;49.462;11.054;2023-12-07T05:23:47;25.55;;;12.35;;
19446;SDS011;9862;49.462;11.054;2023-12-07T05:26:14;24.25;;;13.30;;
19446;SDS011;9862;49.462;11.054;2023-12-07T05:28:41;25.25;;;13.85;;
19446;SDS011;9862;49.462;11.054;2023-12-07T05:31:09;27.17;;;13.55;;
19446;SDS011;9862;49.462;11.054;2023-12-07T05:33:41;23.15;;;13.00;;
19446;SDS011;9862;49.462;11.054;2023-12-07T05:36:08;24.52;;;13.38;;
19446;SDS011;9862;49.462;11.054;2023-12-07T05:38:37;23.02;;;12.95;;
19446;SDS011;9862;49.462;11.054;2023-12-07T05:41:03;28.27;;;13.88;;
19446;SDS011;9862;49.462;11.054;2023-12-07T05:43:30;25.55;;;13.02;;
19446;SDS011;9862;49.462;11.054;2023-12-07T05:45:59;24.92;;;13.55;;
19446;SDS011;9862;49.462;11.054;2023-12-07T05:48:26;26.00;;;13.43;;
19446;SDS011;9862;49.462;11.054;2023-12-07T05:50:53;24.08;;;13.43;;
19446;SDS011;9862;49.462;11.054;2023-12-07T05:53:21;25.48;;;13.88;;
19446;SDS011;9862;49.462;11.054;2023-12-07T05:55:49;27.33;;;13.43;;
19446;SDS011;9862;49.462;11.054;2023-12-07T05:58:17;21.58;;;12.95;;
19446;SDS011;9862;49.462;11.054;2023-12-07T06:00:44;21.10;;;11.80;;
19446;SDS011;9862;49.462;11.054;2023-12-07T06:03:12;23.20;;;12.85;;
19446;SDS011;9862;49.462;11.054;2023-12-07T06:05:39;25.83;;;13.88;;
19446;SDS011;9862;49.462;11.054;2023-12-07T06:08:06;21.95;;;13.23;;
19446;SDS011;9862;49.462;11.054;2023-12-07T06:10:34;57.00;;;27.65;;
19446;SDS011;9862;49.462;11.054;2023-12-07T06:13:04;64.20;;;30.73;;
19446;SDS011;9862;49.462;11.054;2023-12-07T06:15:31;71.15;;;34.58;;
19446;SDS011;9862;49.462;11.054;2023-12-07T06:17:57;45.25;;;22.85;;
19446;SDS011;9862;49.462;11.054;2023-12-07T06:20:25;31.48;;;16.92;;
19446;SDS011;9862;49.462;11.054;2023-12-07T06:22:52;22.98;;;13.23;;
19446;SDS011;9862;49.462;11.054;2023-12-07T06:25:19;26.52;;;12.90;;
19446;SDS011;9862;49.462;11.054;2023-12-07T06:27:45;40.42;;;22.33;;
19446;SDS011;9862;49.462;11.054;2023-12-07T06:30:15;80.60;;;40.22;;
19446;SDS011;9862;49.462;11.054;2023-12-07T06:32:43;41.92;;;21.83;;
19446;SDS011;9862;49.462;11.054;2023-12-07T06:35:11;33.42;;;18.17;;
19446;SDS011;9862;49.462;11.054;2023-12-07T06:37:38;28.08;;;14.90;;
19446;SDS011;9862;49.462;11.054;2023-12-07T06:40:08;25.98;;;13.95;;
19446;SDS011;9862;49.462;11.054;2023-12-07T06:42:36;28.95;;;14.60;;
19446;SDS011;9862;49.462;11.054;2023-12-07T06:45:03;28.42;;;15.07;;
19446;SDS011;9862;49.462;11.054;2023-12-07T06:47:37;27.67;;;15.25;;
19446;SDS011;9862;49.462;11.054;2023-12-07T06:50:04;32.42;;;16.42;;
19446;SDS011;9862;49.462;11.054;2023-12-07T06:52:33;36.13;;;16.63;;
19446;SDS011;9862;49.462;11.054;2023-12-07T06:55:00;33.15;;;16.15;;
19446;SDS011;9862;49.462;11.054;2023-12-07T06:57:27;33.35;;;17.65;;
19446;SDS011;9862;49.462;11.054;2023-12-07T06:59:55;35.08;;;18.27;;
19446;SDS011;9862;49.462;11.054;2023-12-07T07:02:22;26.88;;;15.40;;
19446;SDS011;9862;49.462;11.054;2023-12-07T07:04:50;31.90;;;16.08;;
19446;SDS011;9862;49.462;11.054;2023-12-07T07:07:17;24.98;;;14.88;;
19446;SDS011;9862;49.462;11.054;2023-12-07T07:09:44;31.50;;;14.50;;
19446;SDS011;9862;49.462;11.054;2023-12-07T07:12:12;28.45;;;15.40;;
19446;SDS011;9862;49.462;11.054;2023-12-07T07:14:38;25.85;;;14.88;;
19446;SDS011;9862;49.462;11.054;2023-12-07T07:17:07;32.72;;;16.52;;
19446;SDS011;9862;49.462;11.054;2023-12-07T07:19:34;31.70;;;15.90;;
19446;SDS011;9862;49.462;11.054;2023-12-07T07:22:03;30.48;;;15.57;;
19446;SDS011;9862;49.462;11.054;2023-12-07T07:24:32;47.50;;;27.40;;
19446;SDS011;9862;49.462;11.054;2023-12-07T07:27:00;33.03;;;18.33;;
19446;SDS011;9862;49.462;11.054;2023-12-07T07:29:28;30.35;;;16.73;;
19446;SDS011;9862;49.462;11.054;2023-12-07T07:31:55;25.92;;;14.88;;
19446;SDS011;9862;49.462;11.054;2023-12-07T07:34:22;26.52;;;15.02;;
19446;SDS011;9862;49.462;11.054;2023-12-07T07:36:50;28.33;;;15.55;;
19446;SDS011;9862;49.462;11.054;2023-12-07T07:39:18;27.35;;;14.60;;
19446;SDS011;9862;49.462;11.054;2023-12-07T07:41:45;27.98;;;15.20;;
19446;SDS011;9862;49.462;11.054;2023-12-07T07:44:12;30.17;;;16.17;;
19446;SDS011;9862;49.462;11.054;2023-12-07T07:46:40;27.83;;;15.57;;
19446;SDS011;9862;49.462;11.054;2023-12-07T07:49:08;31.85;;;17.23;;
19446;SDS011;9862;49.462;11.054;2023-12-07T07:51:35;29.88;;;16.85;;
19446;SDS011;9862;49.462;11.054;2023-12-07T07:54:01;75.10;;;34.90;;
19446;SDS011;9862;49.462;11.054;2023-12-07T07:56:30;54.67;;;25.75;;
19446;SDS011;9862;49.462;11.054;2023-12-07T07:58:57;40.55;;;20.77;;
19446;SDS011;9862;49.462;11.054;2023-12-07T08:01:26;28.58;;;16.05;;
19446;SDS011;9862;49.462;11.054;2023-12-07T08:03:52;30.65;;;16.05;;
19446;SDS011;9862;49.462;11.054;2023-12-07T08:06:19;32.28;;;15.55;;
19446;SDS011;9862;49.462;11.054;2023-12-07T08:08:47;30.50;;;16.92;;
19446;SDS011;9862;49.462;11.054;2023-12-07T08:11:14;32.97;;;17.42;;
19446;SDS011;9862;49.462;11.054;2023-12-07T08:13:43;35.00;;;17.52;;
19446;SDS011;9862;49.462;11.054;2023-12-07T08:16:10;33.28;;;15.98;;
19446;SDS011;9862;49.462;11.054;2023-12-07T08:18:37;36.85;;;16.30;;
19446;SDS011;9862;49.462;11.054;2023-12-07T08:21:05;28.13;;;16.00;;
19446;SDS011;9862;49.462;11.054;2023-12-07T08:23:33;32.92;;;16.13;;
19446;SDS011;9862;49.462;11.054;2023-12-07T08:26:00;95.45;;;39.97;;
19446;SDS011;9862;49.462;11.054;2023-12-07T08:28:27;36.92;;;18.63;;
19446;SDS011;9862;49.462;11.054;2023-12-07T08:30:56;31.52;;;17.52;;
19446;SDS011;9862;49.462;11.054;2023-12-07T08:33:23;34.05;;;16.08;;
19446;SDS011;9862;49.462;11.054;2023-12-07T08:35:50;32.58;;;17.17;;
19446;SDS011;9862;49.462;11.054;2023-12-07T08:38:19;33.25;;;16.92;;
19446;SDS011;9862;49.462;11.054;2023-12-07T08:40:47;33.72;;;16.85;;
19446;SDS011;9862;49.462;11.054;2023-12-07T08:43:14;34.97;;;19.55;;
19446;SDS011;9862;49.462;11.054;2023-12-07T08:45:41;41.85;;;23.20;;
19446;SDS011;9862;49.462;11.054;2023-12-07T08:48:09;160.55;;;83.00;;
19446;SDS011;9862;49.462;11.054;2023-12-07T08:50:36;130.38;;;66.50;;
19446;SDS011;9862;49.462;11.054;2023-12-07T08:53:03;105.35;;;50.45;;
19446;SDS011;9862;49.462;11.054;2023-12-07T08:55:31;56.50;;;29.65;;
19446;SDS011;9862;49.462;11.054;2023-12-07T08:57:57;46.00;;;22.40;;
19446;SDS011;9862;49.462;11.054;2023-12-07T09:00:26;33.95;;;19.17;;
19446;SDS011;9862;49.462;11.054;2023-12-07T09:02:52;33.05;;;18.02;;
19446;SDS011;9862;49.462;11.054;2023-12-07T09:05:22;28.63;;;15.93;;
19446;SDS011;9862;49.462;11.054;2023-12-07T09:07:49;34.20;;;16.65;;
19446;SDS011;9862;49.462;11.054;2023-12-07T09:10:18;29.50;;;16.52;;
19446;SDS011;9862;49.462;11.054;2023-12-07T09:12:45;26.70;;;16.63;;
19446;SDS011;9862;49.462;11.054;2023-12-07T09:15:11;29.35;;;16.00;;
19446;SDS011;9862;49.462;11.054;2023-12-07T09:17:38;40.88;;;20.52;;
19446;SDS011;9862;49.462;11.054;2023-12-07T09:20:06;74.18;;;34.05;;
19446;SDS011;9862;49.462;11.054;2023-12-07T09:22:39;46.47;;;24.42;;
19446;SDS011;9862;49.462;11.054;2023-12-07T09:25:07;35.28;;;18.13;;
19446;SDS011;9862;49.462;11.054;2023-12-07T09:27:35;31.88;;;17.98;;
19446;SDS011;9862;49.462;11.054;2023-12-07T09:30:03;31.27;;;16.25;;
19446;SDS011;9862;49.462;11.054;2023-12-07T09:32:32;27.73;;;15.73;;
19446;SDS011;9862;49.462;11.054;2023-12-07T09:35:03;30.42;;;15.65;;
19446;SDS011;9862;49.462;11.054;2023-12-07T09:37:32;31.70;;;16.80;;
19446;SDS011;9862;49.462;11.054;2023-12-07T09:40:00;27.98;;;15.73;;
19446;SDS011;9862;49.462;11.054;2023-12-07T09:42:29;23.98;;;14.13;;
19446;SDS011;9862;49.462;11.054;2023-12-07T09:44:56;27.35;;;13.32;;
19446;SDS011;9862;49.462;11.054;2023-12-07T09:47:23;25.58;;;14.77;;
19446;SDS011;9862;49.462;11.054;2023-12-07T09:49:52;25.20;;;14.05;;
19446;SDS011;9862;49.462;11.054;2023-12-07T09:52:19;32.42;;;15.77;;
19446;SDS011;9862;49.462;11.054;2023-12-07T09:54:47;49.85;;;23.10;;
19446;SDS011;9862;49.462;11.054;2023-12-07T09:57:17;34.53;;;17.02;;
19446;SDS011;9862;49.462;11.054;2023-12-07T09:59:44;29.50;;;15.25;;
19446;SDS011;9862;49.462;11.054;2023-12-07T10:02:11;27.88;;;15.32;;
19446;SDS011;9862;49.462;11.054;2023-12-07T10:04:38;30.50;;;15.35;;
19446;SDS011;9862;49.462;11.054;2023-12-07T10:07:06;27.63;;;15.85;;
19446;SDS011;9862;49.462;11.054;2023-12-07T10:09:34;26.50;;;14.07;;
19446;SDS011;9862;49.462;11.054;2023-12-07T10:12:05;27.27;;;14.80;;
19446;SDS011;9862;49.462;11.054;2023-12-07T10:14:34;30.02;;;17.00;;
19446;SDS011;9862;49.462;11.054;2023-12-07T10:17:01;32.22;;;16.73;;
19446;SDS011;9862;49.462;11.054;2023-12-07T10:19:29;44.15;;;22.27;;
19446;SDS011;9862;49.462;11.054;2023-12-07T10:21:56;37.00;;;21.13;;
19446;SDS011;9862;49.462;11.054;2023-12-07T10:24:24;26.73;;;15.75;;
19446;SDS011;9862;49.462;11.054;2023-12-07T10:26:51;26.30;;;15.13;;
19446;SDS011;9862;49.462;11.054;2023-12-07T10:29:19;26.80;;;14.25;;
19446;SDS011;9862;49.462;11.054;2023-12-07T10:31:49;28.38;;;16.00;;
19446;SDS011;9862;49.462;11.054;2023-12-07T10:34:17;27.13;;;15.90;;
19446;SDS011;9862;49.462;11.054;2023-12-07T10:36:46;26.70;;;14.45;;
19446;SDS011;9862;49.462;11.054;2023-12-07T10:39:14;52.25;;;23.63;;
19446;SDS011;9862;49.462;11.054;2023-12-07T10:41:42;34.42;;;16.55;;
19446;SDS011;9862;49.462;11.054;2023-12-07T10:44:11;31.40;;;15.95;;
19446;SDS011;9862;49.462;11.054;2023-12-07T10:46:40;26.23;;;14.35;;
19446;SDS011;9862;49.462;11.054;2023-12-07T10:49:11;24.88;;;14.10;;
19446;SDS011;9862;49.462;11.054;2023-12-07T10:51:45;29.73;;;13.85;;
19446;SDS011;9862;49.462;11.054;2023-12-07T10:54:21;26.50;;;14.98;;
19446;SDS011;9862;49.462;11.054;2023-12-07T10:56:49;30.63;;;16.90;;
19446;SDS011;9862;49.462;11.054;2023-12-07T10:59:16;29.50;;;15.10;;
19446;SDS011;9862;49.462;11.054;2023-12-07T11:01:43;61.88;;;29.52;;
19446;SDS011;9862;49.462;11.054;2023-12-07T11:04:12;28.83;;;14.75;;
19446;SDS011;9862;49.462;11.054;2023-12-07T11:06:40;25.15;;;14.10;;
19446;SDS011;9862;49.462;11.054;2023-12-07T11:09:08;26.65;;;14.25;;
19446;SDS011;9862;49.462;11.054;2023-12-07T11:11:41;25.77;;;14.77;;
19446;SDS011;9862;49.462;11.054;2023-12-07T11:14:13;26.83;;;14.30;;
19446;SDS011;9862;49.462;11.054;2023-12-07T11:16:42;27.98;;;16.23;;
19446;SDS011;9862;49.462;11.054;2023-12-07T11:22:10;28.52;;;15.55;;
19446;SDS011;9862;49.462;11.054;2023-12-07T11:24:38;27.27;;;15.18;;
19446;SDS011;9862;49.462;11.054;2023-12-07T11:27:19;29.65;;;15.13;;
19446;SDS011;9862;49.462;11.054;2023-12-07T11:29:45;35.75;;;17.75;;
19446;SDS011;9862;49.462;11.054;2023-12-07T11:32:14;28.80;;;16.58;;
19446;SDS011;9862;49.462;11.054;2023-12-07T11:34:41;29.25;;;15.25;;
19446;SDS011;9862;49.462;11.054;2023-12-07T11:37:11;25.30;;;14.77;;
19446;SDS011;9862;49.462;11.054;2023-12-07T11:39:42;25.60;;;14.40;;
19446;SDS011;9862;49.462;11.054;2023-12-07T11:42:10;28.02;;;14.90;;
19446;SDS011;9862;49.462;11.054;2023-12-07T11:44:38;26.98;;;14.82;;
19446;SDS011;9862;49.462;11.054;2023-12-07T11:47:06;24.67;;;14.10;;
19446;SDS011;9862;49.462;11.054;2023-12-07T11:49:35;28.40;;;14.43;;
19446;SDS011;9862;49.462;11.054;2023-12-07T11:52:13;29.00;;;14.05;;
19446;SDS011;9862;49.462;11.054;2023-12-07T11:54:43;22.20;;;13.35;;
19446;SDS011;9862;49.462;11.054;2023-12-07T11:57:11;22.42;;;13.95;;
19446;SDS011;9862;49.462;11.054;2023-12-07T11:59:38;27.05;;;14.63;;
19446;SDS011;9862;49.462;11.054;2023-12-07T12:02:05;29.25;;;15.38;;
19446;SDS011;9862;49.462;11.054;2023-12-07T12:04:32;28.45;;;16.92;;
19446;SDS011;9862;49.462;11.054;2023-12-07T12:06:59;28.13;;;15.00;;
19446;SDS011;9862;49.462;11.054;2023-12-07T12:09:28;22.05;;;12.52;;
19446;SDS011;9862;49.462;11.054;2023-12-07T12:11:56;25.35;;;13.70;;
19446;SDS011;9862;49.462;11.054;2023-12-07T12:14:26;25.52;;;14.98;;
19446;SDS011;9862;49.462;11.054;2023-12-07T12:16:53;24.88;;;13.98;;
19446;SDS011;9862;49.462;11.054;2023-12-07T12:19:21;27.10;;;14.48;;
19446;SDS011;9862;49.462;11.054;2023-12-07T12:21:49;22.10;;;13.52;;
19446;SDS011;9862;49.462;11.054;2023-12-07T12:24:16;22.30;;;13.63;;
19446;SDS011;9862;49.462;11.054;2023-12-07T12:26:45;68.82;;;31.13;;
19446;SDS011;9862;49.462;11.054;2023-12-07T12:29:13;50.42;;;24.23;;
19446;SDS011;9862;49.462;11.054;2023-12-07T12:31:41;25.90;;;14.30;;
19446;SDS011;9862;49.462;11.054;2023-12-07T12:34:08;20.58;;;11.68;;
19446;SDS011;9862;49.462;11.054;2023-12-07T12:36:38;23.73;;;12.73;;
19446;SDS011;9862;49.462;11.054;2023-12-07T12:39:05;62.33;;;33.40;;
19446;SDS011;9862;49.462;11.054;2023-12-07T12:41:33;52.78;;;26.63;;
19446;SDS011;9862;49.462;11.054;2023-12-07T12:44:02;24.45;;;13.88;;
19446;SDS011;9862;49.462;11.054;2023-12-07T12:46:29;25.90;;;14.52;;
19446;SDS011;9862;49.462;11.054;2023-12-07T12:48:57;20.23;;;11.85;;
19446;SDS011;9862;49.462;11.054;2023-12-07T12:54:14;16.73;;;10.18;;
19446;SDS011;9862;49.462;11.054;2023-12-07T12:56:41;21.30;;;11.60;;
19446;SDS011;9862;49.462;11.054;2023-12-07T12:59:10;20.02;;;11.27;;
19446;SDS011;9862;49.462;11.054;2023-12-07T13:01:37;37.97;;;18.00;;
19446;SDS011;9862;49.462;11.054;2023-12-07T13:04:05;20.88;;;11.70;;
19446;SDS011;9862;49.462;11.054;2023-12-07T13:06:32;28.00;;;12.02;;
19446;SDS011;9862;49.462;11.054;2023-12-07T13:08:59;19.48;;;10.45;;
19446;SDS011;9862;49.462;11.054;2023-12-07T13:11:26;38.05;;;11.27;;
19446;SDS011;9862;49.462;11.054;2023-12-07T13:13:53;42.28;;;12.85;;
19446;SDS011;9862;49.462;11.054;2023-12-07T13:16:21;19.48;;;9.02;;
19446;SDS011;9862;49.462;11.054;2023-12-07T13:18:48;17.17;;;9.65;;
19446;SDS011;9862;49.462;11.054;2023-12-07T13:21:16;23.63;;;11.90;;
19446;SDS011;9862;49.462;11.054;2023-12-07T13:23:44;39.92;;;18.45;;
19446;SDS011;9862;49.462;11.054;2023-12-07T13:26:11;36.90;;;17.15;;
19446;SDS011;9862;49.462;11.054;2023-12-07T13:28:38;22.95;;;11.48;;
19446;SDS011;9862;49.462;11.054;2023-12-07T13:31:05;17.92;;;9.93;;
19446;SDS011;9862;49.462;11.054;2023-12-07T13:33:33;29.52;;;9.98;;
19446;SDS011;9862;49.462;11.054;2023-12-07T13:36:00;21.52;;;9.10;;
19446;SDS011;9862;49.462;11.054;2023-12-07T13:38:27;22.77;;;8.75;;
19446;SDS011;9862;49.462;11.054;2023-12-07T13:40:55;21.30;;;9.45;;
19446;SDS011;9862;49.462;11.054;2023-12-07T13:43:23;54.80;;;26.88;;
19446;SDS011;9862;49.462;11.054;2023-12-07T13:45:50;39.92;;;13.02;;
19446;SDS011;9862;49.462;11.054;2023-12-07T13:48:17;27.30;;;10.10;;
19446;SDS011;9862;49.462;11.054;2023-12-07T13:50:46;24.02;;;10.02;;
19446;SDS011;9862;49.462;11.054;2023-12-07T13:53:12;24.67;;;13.02;;
19446;SDS011;9862;49.462;11.054;2023-12-07T13:55:39;61.80;;;32.35;;
19446;SDS011;9862;49.462;11.054;2023-12-07T13:58:06;60.92;;;31.73;;
19446;SDS011;9862;49.462;11.054;2023-12-07T14:00:34;19.10;;;11.07;;
19446;SDS011;9862;49.462;11.054;2023-12-07T14:03:01;14.00;;;8.40;;
19446;SDS011;9862;49.462;11.054;2023-12-07T14:05:29;20.48;;;9.18;;
19446;SDS011;9862;49.462;11.054;2023-12-07T14:07:59;16.67;;;8.55;;
19446;SDS011;9862;49.462;11.054;2023-12-07T14:10:26;11.63;;;8.07;;
19446;SDS011;9862;49.462;11.054;2023-12-07T14:12:53;110.18;;;45.78;;
19446;SDS011;9862;49.462;11.054;2023-12-07T14:15:20;39.45;;;20.58;;
19446;SDS011;9862;49.462;11.054;2023-12-07T14:17:46;33.78;;;19.77;;
19446;SDS011;9862;49.462;11.054;2023-12-07T14:20:13;41.92;;;14.40;;
19446;SDS011;9862;49.462;11.054;2023-12-07T14:22:40;20.88;;;10.30;;
19446;SDS011;9862;49.462;11.054;2023-12-07T14:25:09;17.02;;;8.38;;
19446;SDS011;9862;49.462;11.054;2023-12-07T14:27:37;14.30;;;8.77;;
19446;SDS011;9862;49.462;11.054;2023-12-07T14:30:04;12.07;;;8.60;;
19446;SDS011;9862;49.462;11.054;2023-12-07T14:32:32;11.93;;;7.55;;